CheckWX is a tool to help pilots better visualize weather data.  It is not intended as a substitute for an official pre-flight weather briefing.

15:04:57 UTC

KMCF METAR
Macdill AFB Airport
Tampa, Florida, USA
Current

9 mins ago

KMCF 231456Z AUTO 08011KT 10SM CLR 28/19 A3016 RMK AO2 SLP216 T02810185 52008 FZRANO $
Observed
May-23 @ 14:56 UTC
Wind
  • 080° at 11 KTS
Visibility
10 SM
Flight Rules
VFR
Cloud Levels
  • Clear skies
Temperature
28°C / 82°F
Dewpoint
19°C / 66°F
Heat Index
29°C / 84°F
Humidity
58%
Altimeter
30.16" Hg
Pressure
1021.32 hPa
Previous

1 hour ago

KMCF 231356Z AUTO 10009KT 10SM CLR 27/19 A3016 RMK AO2 SLP216 T02720187 FZRANO $
Observed
May-23 @ 13:56 UTC
Wind
  • 100° at 9 KTS
Visibility
10 SM
Flight Rules
VFR
Cloud Levels
  • Clear skies
Temperature
27°C / 81°F
Dewpoint
19°C / 66°F
Heat Index
28°C / 83°F
Humidity
62%
Altimeter
30.16" Hg
Pressure
1021.32 hPa
Previous

2 hours ago

KMCF 231256Z AUTO 13009KT 10SM CLR 26/19 A3015 RMK AO2 SLP213 T02570186 FZRANO $
Observed
May-23 @ 12:56 UTC
Wind
  • 130° at 9 KTS
Visibility
10 SM
Flight Rules
VFR
Cloud Levels
  • Clear skies
Temperature
26°C / 79°F
Dewpoint
19°C / 66°F
Humidity
65%
Altimeter
30.15" Hg
Pressure
1021.02 hPa